Time;durP1;ratioP1;P1;durP2;ratioP2;P2;SDS_P1;SDS_P2;PMS_P1;PMS_P2;Temp;Humidity;BMP_temperature;BMP_pressure;BME280_temperature;BME280_humidity;BME280_pressure;Samples;Min_cycle;Max_cycle;Signal;HPM_P1;HPM_P2
2021/11/17 02:26:25;;;;;;;29.15;11.90;;;;;;;;;;5034003;28;20549;-63
2021/11/17 02:29:30;;;;;;;25.88;10.55;;;;;;;;;;5034308;28;20108;-64
2021/11/17 02:32:21;;;;;;;29.45;10.25;;;;;;;;;;5034132;28;20144;-64
2021/11/17 02:35:06;;;;;;;27.90;9.60;;;;;;;;;;5026951;28;20056;-63
2021/11/17 02:37:47;;;;;;;33.22;10.63;;;;;;;;;;5034042;28;20116;-64
2021/11/17 02:40:20;;;;;;;;;;;;;;;;;;5034190;28;20053;-63
2021/11/17 02:43:08;;;;;;;30.73;10.10;;;;;;;;;;5033997;28;19943;-64
2021/11/17 02:45:51;;;;;;;28.25;10.65;;;;;;;;;;5033869;28;20084;-62
2021/11/17 02:48:35;;;;;;;35.20;12.05;;;;;;;;;;5033708;28;20505;-63
2021/11/17 02:51:31;;;;;;;31.27;10.00;;;;;;;;;;5033661;28;20055;-62
2021/11/17 02:54:23;;;;;;;28.40;10.70;;;;;;;;;;5033786;28;20085;-63
2021/11/17 02:57:05;;;;;;;32.50;11.40;;;;;;;;;;5033623;28;20049;-63
2021/11/17 02:59:48;;;;;;;31.15;11.55;;;;;;;;;;5033761;28;20045;-63
2021/11/17 03:02:38;;;;;;;30.33;10.70;;;;;;;;;;5033552;28;20498;-64
2021/11/17 03:05:25;;;;;;;33.23;12.27;;;;;;;;;;5033308;28;20064;-63
2021/11/17 03:08:05;;;;;;;29.83;10.73;;;;;;;;;;5033657;28;20415;-64
2021/11/17 03:10:58;;;;;;;29.98;10.18;;;;;;;;;;5033376;28;20049;-63
2021/11/17 03:13:42;;;;;;;36.58;11.90;;;;;;;;;;5033321;28;20077;-63
2021/11/17 03:16:27;;;;;;;33.60;10.60;;;;;;;;;;5032949;28;20438;-63
2021/11/17 03:19:07;;;;;;;30.45;11.32;;;;;;;;;;5033387;28;20136;-63
2021/11/17 03:21:52;;;;;;;33.92;11.77;;;;;;;;;;5032962;28;20054;-63
2021/11/17 03:24:35;;;;;;;36.88;12.65;;;;;;;;;;5033266;28;20046;-64
2021/11/17 03:27:16;;;;;;;30.92;10.50;;;;;;;;;;5032445;28;20060;-64
2021/11/17 03:30:00;;;;;;;32.03;11.45;;;;;;;;;;5033044;28;20060;-63
2021/11/17 03:32:50;;;;;;;32.13;10.38;;;;;;;;;;5032805;28;20146;-62
2021/11/17 03:35:39;;;;;;;26.85;10.25;;;;;;;;;;5032885;28;20496;-60
2021/11/17 03:38:27;;;;;;;30.90;11.48;;;;;;;;;;5032752;28;20065;-63
2021/11/17 03:41:14;;;;;;;29.58;10.70;;;;;;;;;;5032364;28;20057;-62
2021/11/17 03:44:09;;;;;;;31.48;10.38;;;;;;;;;;5032820;28;20470;-63
2021/11/17 03:47:00;;;;;;;34.53;9.32;;;;;;;;;;5056167;23;20045;-61
2021/11/17 03:49:34;;;;;;;;;;;;;;;;;;5053695;28;20506;-62
2021/11/17 03:52:23;;;;;;;27.85;8.90;;;;;;;;;;5052895;28;19921;-62
2021/11/17 03:55:17;;;;;;;34.35;10.77;;;;;;;;;;5052800;28;20048;-63
2021/11/17 03:57:55;;;;;;;31.02;11.30;;;;;;;;;;5052626;28;20107;-62
2021/11/17 04:00:38;;;;;;;28.02;9.48;;;;;;;;;;5052603;28;20053;-62
2021/11/17 04:03:20;;;;;;;28.15;9.93;;;;;;;;;;5052925;28;20059;-61
2021/11/17 04:05:59;;;;;;;31.98;10.65;;;;;;;;;;5052947;28;20084;-62
2021/11/17 04:08:48;;;;;;;33.40;11.05;;;;;;;;;;5052506;28;20052;-62
2021/11/17 04:11:36;;;;;;;34.47;10.75;;;;;;;;;;5052457;28;20053;-62
2021/11/17 04:14:15;;;;;;;31.70;10.10;;;;;;;;;;5052586;28;20049;-63
2021/11/17 04:16:58;;;;;;;33.28;10.15;;;;;;;;;;5052596;28;20494;-62
2021/11/17 04:19:37;;;;;;;33.83;10.93;;;;;;;;;;5052646;28;20471;-62
2021/11/17 04:22:26;;;;;;;30.77;11.20;;;;;;;;;;5052273;28;20136;-62
2021/11/17 04:25:17;;;;;;;34.30;9.95;;;;;;;;;;5052581;28;20055;-64
2021/11/17 04:27:50;;;;;;;;;;;;;;;;;;5043118;28;20059;-62
2021/11/17 04:30:54;;;;;;;31.63;10.13;;;;;;;;;;5052542;28;20006;-62
2021/11/17 04:33:54;;;;;;;27.02;9.02;;;;;;;;;;5019083;28;20140;-63
2021/11/17 04:36:52;;;;;;;29.60;10.57;;;;;;;;;;5052158;28;20055;-62
2021/11/17 04:39:41;;;;;;;28.58;10.10;;;;;;;;;;5052221;28;20718;-62
2021/11/17 04:42:24;;;;;;;30.00;9.88;;;;;;;;;;5052230;28;20048;-62
2021/11/17 04:45:10;;;;;;;34.33;9.73;;;;;;;;;;5052306;28;20048;-62
2021/11/17 04:47:50;;;;;;;34.45;11.07;;;;;;;;;;5052628;28;20444;-61
2021/11/17 04:50:45;;;;;;;33.85;10.75;;;;;;;;;;5052393;28;20061;-62
2021/11/17 04:53:28;;;;;;;29.75;10.20;;;;;;;;;;5050131;28;20060;-63
2021/11/17 04:56:08;;;;;;;29.05;10.80;;;;;;;;;;5052331;28;20135;-62
2021/11/17 04:58:55;;;;;;;31.23;10.75;;;;;;;;;;5052094;28;20096;-62
2021/11/17 05:01:41;;;;;;;25.65;9.63;;;;;;;;;;5051824;28;20124;-62
2021/11/17 05:04:24;;;;;;;31.00;10.48;;;;;;;;;;5051822;28;20135;-64
2021/11/17 05:07:07;;;;;;;30.50;10.50;;;;;;;;;;5051993;28;20057;-61
2021/11/17 05:09:44;;;;;;;29.05;10.55;;;;;;;;;;5052163;28;20055;-63
2021/11/17 05:12:23;;;;;;;29.52;9.88;;;;;;;;;;5051649;28;20045;-61
2021/11/17 05:14:59;;;;;;;29.67;10.00;;;;;;;;;;5051851;28;20489;-62
2021/11/17 05:17:37;;;;;;;36.33;15.20;;;;;;;;;;5051859;28;20045;-62
2021/11/17 05:20:18;;;;;;;47.45;17.13;;;;;;;;;;5051875;28;20486;-62
2021/11/17 05:22:58;;;;;;;28.10;10.35;;;;;;;;;;5051795;28;20095;-62
2021/11/17 05:25:42;;;;;;;35.33;10.13;;;;;;;;;;5052031;28;20405;-65
2021/11/17 05:28:27;;;;;;;33.47;11.35;;;;;;;;;;5052016;28;20137;-62
2021/11/17 05:31:18;;;;;;;28.55;8.85;;;;;;;;;;5051563;28;20057;-62
2021/11/17 05:34:03;;;;;;;28.00;10.52;;;;;;;;;;5051603;28;20053;-62
2021/11/17 05:36:40;;;;;;;27.98;9.20;;;;;;;;;;5051678;28;20053;-62
2021/11/17 05:39:30;;;;;;;30.98;10.23;;;;;;;;;;5051998;28;20505;-62
2021/11/17 05:42:10;;;;;;;26.70;10.02;;;;;;;;;;5051565;28;20057;-62
2021/11/17 05:44:52;;;;;;;32.80;10.70;;;;;;;;;;5051549;28;20095;-62
2021/11/17 05:47:32;;;;;;;30.55;11.15;;;;;;;;;;5051536;28;20049;-63
2021/11/17 05:50:14;;;;;;;29.03;9.83;;;;;;;;;;5053481;28;20059;-62
2021/11/17 05:52:54;;;;;;;33.00;12.55;;;;;;;;;;5055693;28;20357;-62
2021/11/17 05:55:42;;;;;;;28.23;11.00;;;;;;;;;;5055222;28;20052;-61
2021/11/17 05:58:22;;;;;;;24.70;9.30;;;;;;;;;;5055193;28;20131;-62
2021/11/17 06:01:05;;;;;;;29.13;9.73;;;;;;;;;;5055000;28;20049;-61
2021/11/17 06:03:44;;;;;;;28.92;10.25;;;;;;;;;;5054815;28;20052;-63
2021/11/17 06:06:10;;;;;;;37.55;11.75;;;;;;;;;;5054956;28;20444;-62
2021/11/17 06:08:37;;;;;;;30.20;10.95;;;;;;;;;;5054973;28;20413;-62
2021/11/17 06:11:06;;;;;;;27.25;10.63;;;;;;;;;;5054882;28;20053;-62
2021/11/17 06:13:33;;;;;;;34.22;11.07;;;;;;;;;;5055100;28;20045;-62
2021/11/17 06:16:02;;;;;;;31.58;11.73;;;;;;;;;;5054477;28;20136;-62
2021/11/17 06:18:32;;;;;;;28.80;9.40;;;;;;;;;;5054842;28;20135;-62
2021/11/17 06:20:59;;;;;;;30.73;11.97;;;;;;;;;;5054976;28;20404;-62
2021/11/17 06:23:30;;;;;;;34.40;12.23;;;;;;;;;;5054185;28;20270;-61
2021/11/17 06:25:58;;;;;;;29.02;9.90;;;;;;;;;;5053916;28;20053;-61
2021/11/17 06:28:28;;;;;;;34.42;11.65;;;;;;;;;;5054670;28;20067;-61
2021/11/17 06:30:58;;;;;;;30.85;10.70;;;;;;;;;;5054267;28;20045;-60
2021/11/17 06:33:25;;;;;;;39.57;12.70;;;;;;;;;;5054142;28;20060;-61
2021/11/17 06:35:52;;;;;;;31.70;11.95;;;;;;;;;;5054051;28;20049;-61
2021/11/17 06:38:20;;;;;;;39.78;11.60;;;;;;;;;;5054199;28;20140;-61
2021/11/17 06:40:49;;;;;;;32.75;10.63;;;;;;;;;;5053947;28;20501;-61
2021/11/17 06:43:16;;;;;;;30.48;11.15;;;;;;;;;;5054047;28;20059;-60
2021/11/17 06:45:46;;;;;;;34.20;11.18;;;;;;;;;;5053700;28;20056;-61
2021/11/17 06:48:14;;;;;;;32.75;11.40;;;;;;;;;;5054074;28;20076;-60
2021/11/17 06:50:43;;;;;;;34.53;12.15;;;;;;;;;;5054140;28;20456;-60
2021/11/17 06:53:11;;;;;;;36.15;13.80;;;;;;;;;;5053937;28;20055;-60
2021/11/17 06:55:38;;;;;;;31.90;12.00;;;;;;;;;;5053651;28;20391;-61
2021/11/17 06:58:05;;;;;;;32.10;10.68;;;;;;;;;;5053982;28;20421;-61
2021/11/17 07:00:34;;;;;;;35.58;11.27;;;;;;;;;;5053330;28;20434;-61
2021/11/17 07:03:03;;;;;;;36.50;11.85;;;;;;;;;;5053413;28;20057;-62
2021/11/17 07:05:30;;;;;;;35.95;11.40;;;;;;;;;;5053755;28;20107;-61
2021/11/17 07:07:59;;;;;;;32.95;11.50;;;;;;;;;;5053613;28;20051;-60
2021/11/17 07:10:28;;;;;;;34.25;11.60;;;;;;;;;;5053322;28;20045;-59
2021/11/17 07:12:56;;;;;;;40.63;14.07;;;;;;;;;;5053425;28;20056;-60
2021/11/17 07:15:25;;;;;;;33.72;11.60;;;;;;;;;;5053160;28;20155;-60
2021/11/17 07:17:52;;;;;;;41.92;14.32;;;;;;;;;;5053258;28;20048;-61
2021/11/17 07:20:21;;;;;;;42.17;15.60;;;;;;;;;;5053199;28;20510;-61
2021/11/17 07:22:49;;;;;;;42.70;14.48;;;;;;;;;;5053241;28;20076;-61
2021/11/17 07:25:18;;;;;;;30.15;11.75;;;;;;;;;;5052917;28;20049;-61
2021/11/17 07:27:46;;;;;;;37.72;12.57;;;;;;;;;;5053452;28;20056;-62
2021/11/17 07:30:15;;;;;;;34.45;11.38;;;;;;;;;;5053254;28;20049;-63
2021/11/17 07:32:43;;;;;;;35.20;13.03;;;;;;;;;;5053248;28;20095;-59
2021/11/17 07:35:11;;;;;;;39.85;13.77;;;;;;;;;;5052626;28;20045;-61
2021/11/17 07:37:40;;;;;;;35.28;12.05;;;;;;;;;;5053107;28;20486;-60
2021/11/17 07:40:10;;;;;;;35.50;12.85;;;;;;;;;;5052911;28;20056;-61
2021/11/17 07:42:37;;;;;;;37.85;12.80;;;;;;;;;;5053141;28;20055;-61
2021/11/17 07:45:06;;;;;;;39.72;12.10;;;;;;;;;;5052549;28;20127;-60
2021/11/17 07:47:33;;;;;;;33.25;11.82;;;;;;;;;;5052780;28;20546;-60
2021/11/17 07:50:02;;;;;;;32.03;11.95;;;;;;;;;;5052862;28;20140;-60
2021/11/17 07:52:29;;;;;;;37.95;12.10;;;;;;;;;;5052577;28;20056;-61
2021/11/17 07:54:57;;;;;;;33.42;11.88;;;;;;;;;;5052380;28;20390;-61
2021/11/17 07:57:24;;;;;;;32.33;11.88;;;;;;;;;;5052476;28;20051;-60
2021/11/17 07:59:51;;;;;;;39.85;12.48;;;;;;;;;;5052193;28;20405;-61
2021/11/17 08:02:20;;;;;;;33.95;10.40;;;;;;;;;;5052474;28;20051;-60
2021/11/17 08:04:48;;;;;;;33.80;10.95;;;;;;;;;;5052529;28;20450;-60
2021/11/17 08:07:19;;;;;;;37.83;14.43;;;;;;;;;;5052171;28;20144;-61
2021/11/17 08:09:48;;;;;;;37.50;11.80;;;;;;;;;;5052296;28;20061;-61
2021/11/17 08:12:16;;;;;;;36.30;11.85;;;;;;;;;;5051824;28;20088;-61
2021/11/17 08:14:43;;;;;;;38.60;12.60;;;;;;;;;;5051841;28;20144;-60
2021/11/17 08:17:11;;;;;;;37.83;13.90;;;;;;;;;;5052014;28;20067;-60
2021/11/17 08:19:38;;;;;;;38.88;14.68;;;;;;;;;;5052096;28;20417;-61
2021/11/17 08:22:08;;;;;;;32.33;11.77;;;;;;;;;;5051932;28;20140;-61
2021/11/17 08:24:37;;;;;;;38.67;12.93;;;;;;;;;;5052326;28;20053;-59
2021/11/17 08:27:05;;;;;;;32.63;11.77;;;;;;;;;;5052110;28;20053;-60
2021/11/17 08:29:34;;;;;;;35.03;12.38;;;;;;;;;;5052040;28;20057;-61
2021/11/17 08:32:01;;;;;;;36.83;13.43;;;;;;;;;;5048712;28;20136;-61
2021/11/17 08:34:30;;;;;;;37.97;12.35;;;;;;;;;;5051382;28;20115;-61
2021/11/17 08:36:57;;;;;;;35.50;11.77;;;;;;;;;;5051080;28;20049;-61
2021/11/17 08:39:26;;;;;;;33.58;12.00;;;;;;;;;;5051686;28;20074;-61
2021/11/17 08:41:53;;;;;;;35.85;12.40;;;;;;;;;;5051648;28;20049;-61
2021/11/17 08:44:20;;;;;;;37.20;11.43;;;;;;;;;;5051634;28;20059;-60
2021/11/17 08:46:48;;;;;;;33.60;12.57;;;;;;;;;;5051531;28;20048;-62
2021/11/17 08:49:15;;;;;;;34.33;11.50;;;;;;;;;;5051839;28;20044;-60
2021/11/17 08:51:42;;;;;;;30.13;11.35;;;;;;;;;;5051691;28;20087;-61
2021/11/17 08:54:09;;;;;;;33.83;10.90;;;;;;;;;;5052160;28;20144;-61
2021/11/17 08:56:37;;;;;;;33.28;10.52;;;;;;;;;;5051793;28;20409;-60
2021/11/17 08:59:05;;;;;;;32.25;11.80;;;;;;;;;;5051552;28;20057;-59
2021/11/17 09:01:34;;;;;;;29.77;10.70;;;;;;;;;;5051641;28;20049;-61
2021/11/17 09:04:05;;;;;;;32.08;11.25;;;;;;;;;;5051742;28;20480;-61
2021/11/17 09:06:33;;;;;;;35.25;11.38;;;;;;;;;;5052206;28;20514;-61
2021/11/17 09:09:04;;;;;;;33.53;11.02;;;;;;;;;;5051663;28;20421;-61
2021/11/17 09:11:32;;;;;;;29.38;11.15;;;;;;;;;;5051371;28;20053;-60
2021/11/17 09:14:00;;;;;;;23.90;9.30;;;;;;;;;;5051609;28;20301;-61
2021/11/17 09:16:30;;;;;;;34.55;11.35;;;;;;;;;;5051231;28;20549;-61
2021/11/17 09:18:57;;;;;;;35.58;10.98;;;;;;;;;;5051498;28;20505;-61
2021/11/17 09:21:26;;;;;;;28.17;11.88;;;;;;;;;;5051447;28;20053;-59
2021/11/17 09:23:53;;;;;;;33.70;12.18;;;;;;;;;;5051728;28;20129;-62
2021/11/17 09:26:22;;;;;;;27.08;10.07;;;;;;;;;;5055141;28;20052;-61
2021/11/17 09:28:50;;;;;;;29.88;11.30;;;;;;;;;;5055322;28;20483;-61
2021/11/17 09:31:18;;;;;;;30.10;11.48;;;;;;;;;;5054988;28;20061;-62
2021/11/17 09:33:46;;;;;;;29.13;11.00;;;;;;;;;;5055133;28;20057;-63
2021/11/17 09:36:14;;;;;;;34.88;12.07;;;;;;;;;;5054848;28;20084;-59
2021/11/17 09:38:43;;;;;;;33.88;12.52;;;;;;;;;;5054566;28;20124;-61
2021/11/17 09:41:13;;;;;;;30.95;11.45;;;;;;;;;;5054410;28;20140;-61
2021/11/17 09:43:43;;;;;;;35.30;12.33;;;;;;;;;;5054301;28;20056;-60
2021/11/17 09:46:12;;;;;;;32.78;11.30;;;;;;;;;;5054415;28;20084;-62
2021/11/17 09:48:43;;;;;;;28.90;11.05;;;;;;;;;;5054323;28;20127;-61
2021/11/17 09:51:21;;;;;;;29.92;11.20;;;;;;;;;;5063322;23;20501;-63
2021/11/17 09:53:58;;;;;;;26.48;10.35;;;;;;;;;;5055448;28;20481;-64
2021/11/17 09:56:29;;;;;;;30.67;11.32;;;;;;;;;;5055343;28;20071;-61
2021/11/17 09:59:00;;;;;;;27.42;10.35;;;;;;;;;;5055224;28;20063;-64
2021/11/17 10:04:58;;;;;;;31.60;13.35;;;;;;;;;;5054694;28;20040;-64
2021/11/17 10:13:30;;;;;;;25.65;7.95;;;;;;;;;;5054939;28;20127;-64
2021/11/17 10:15:58;;;;;;;20.08;8.90;;;;;;;;;;5054798;28;20106;-66
2021/11/17 10:18:36;;;;;;;26.55;9.32;;;;;;;;;;5054743;28;20140;-63
2021/11/17 10:21:09;;;;;;;27.60;8.70;;;;;;;;;;5054252;28;20053;-69
2021/11/17 10:23:38;;;;;;;27.20;9.23;;;;;;;;;;5054378;28;20079;-68
2021/11/17 10:26:12;;;;;;;27.75;8.80;;;;;;;;;;5054545;28;20091;-69
2021/11/17 10:28:48;;;;;;;31.30;9.30;;;;;;;;;;5054535;28;20053;-67
2021/11/17 10:31:18;;;;;;;22.88;7.95;;;;;;;;;;5054222;28;20107;-69
2021/11/17 10:34:05;;;;;;;22.27;7.80;;;;;;;;;;5054982;28;20049;-68
2021/11/17 10:36:36;;;;;;;21.00;7.57;;;;;;;;;;5054016;28;20045;-63
2021/11/17 10:39:17;;;;;;;20.10;7.88;;;;;;;;;;5054462;28;20092;-64
2021/11/17 10:41:58;;;;;;;17.83;6.32;;;;;;;;;;5054112;28;20509;-63
2021/11/17 10:44:47;;;;;;;16.48;5.57;;;;;;;;;;5054143;28;20084;-64
2021/11/17 10:47:34;;;;;;;17.33;6.97;;;;;;;;;;5054446;28;20057;-64
2021/11/17 10:50:14;;;;;;;19.25;6.57;;;;;;;;;;5054102;28;20100;-63
2021/11/17 10:52:46;;;;;;;18.15;6.57;;;;;;;;;;5053571;28;20520;-64
2021/11/17 10:55:21;;;;;;;17.45;7.13;;;;;;;;;;5054110;28;20527;-63
2021/11/17 10:57:50;;;;;;;19.67;7.20;;;;;;;;;;5054160;28;20128;-64
2021/11/17 11:00:20;;;;;;;18.20;6.50;;;;;;;;;;5053755;28;20481;-66
2021/11/17 11:02:49;;;;;;;19.38;7.40;;;;;;;;;;5053573;28;20682;-68
2021/11/17 11:05:19;;;;;;;18.77;6.18;;;;;;;;;;5053662;28;20057;-64
2021/11/17 11:07:50;;;;;;;17.05;6.10;;;;;;;;;;5053741;28;20128;-64
2021/11/17 11:10:29;;;;;;;15.75;6.78;;;;;;;;;;5053951;28;20059;-65
2021/11/17 11:12:59;;;;;;;19.40;6.68;;;;;;;;;;5054132;28;20049;-71
2021/11/17 11:15:29;;;;;;;17.88;7.00;;;;;;;;;;5053233;28;20055;-63
2021/11/17 11:18:42;;;;;;;16.13;6.47;;;;;;;;;;5053479;28;20045;-64
2021/11/17 11:21:12;;;;;;;15.73;6.57;;;;;;;;;;5053271;28;20499;-64
2021/11/17 11:24:14;;;;;;;34.97;15.27;;;;;;;;;;5053960;28;20056;-63
2021/11/17 11:27:13;;;;;;;20.45;7.63;;;;;;;;;;5053428;28;20045;-63
2021/11/17 11:29:45;;;;;;;16.33;6.07;;;;;;;;;;5053462;28;20057;-63
2021/11/17 11:32:31;;;;;;;17.75;6.72;;;;;;;;;;5053387;28;20056;-66
2021/11/17 11:35:17;;;;;;;18.60;6.68;;;;;;;;;;5053060;28;20416;-64
2021/11/17 11:38:02;;;;;;;15.93;6.80;;;;;;;;;;5052916;28;20045;-66
2021/11/17 11:41:03;;;;;;;20.30;6.97;;;;;;;;;;5052972;28;20068;-64
2021/11/17 11:43:34;;;;;;;16.88;6.13;;;;;;;;;;5049858;28;20053;-65
2021/11/17 11:46:22;;;;;;;16.50;6.25;;;;;;;;;;5052902;28;20572;-63
2021/11/17 11:49:09;;;;;;;15.57;5.93;;;;;;;;;;5052508;28;20052;-64
2021/11/17 11:52:18;;;;;;;15.68;6.55;;;;;;;;;;5052643;28;20425;-64
2021/11/17 11:55:27;;;;;;;15.73;6.15;;;;;;;;;;5053057;28;20056;-65
2021/11/17 11:58:43;;;;;;;14.63;5.63;;;;;;;;;;5049804;28;20056;-65
2021/11/17 12:01:19;;;;;;;13.05;5.15;;;;;;;;;;5052920;28;20041;-64
2021/11/17 12:03:54;;;;;;;16.27;4.65;;;;;;;;;;5052679;28;20045;-65
2021/11/17 12:06:27;;;;;;;13.68;4.68;;;;;;;;;;5052600;28;20049;-64
2021/11/17 12:08:59;;;;;;;15.77;6.20;;;;;;;;;;5053013;28;20075;-65
2021/11/17 12:11:31;;;;;;;15.43;4.88;;;;;;;;;;5053000;28;20049;-65
2021/11/17 12:14:04;;;;;;;12.00;5.40;;;;;;;;;;5052662;28;20617;-64
2021/11/17 12:16:47;;;;;;;15.20;5.80;;;;;;;;;;5052338;28;20090;-65
2021/11/17 12:19:31;;;;;;;13.75;5.05;;;;;;;;;;5052194;28;20072;-65
2021/11/17 12:22:06;;;;;;;12.10;5.43;;;;;;;;;;5052339;28;20220;-64
2021/11/17 12:24:35;;;;;;;23.88;13.48;;;;;;;;;;5052372;28;20505;-64
2021/11/17 12:27:06;;;;;;;15.70;7.30;;;;;;;;;;5052205;28;20143;-64
2021/11/17 12:29:44;;;;;;;12.07;4.88;;;;;;;;;;5052145;28;20490;-65
2021/11/17 12:32:19;;;;;;;13.30;5.15;;;;;;;;;;5052188;28;20056;-68
2021/11/17 12:35:21;;;;;;;13.95;5.45;;;;;;;;;;5052064;28;20055;-64
2021/11/17 12:37:53;;;;;;;13.98;5.07;;;;;;;;;;5052089;28;20051;-64
2021/11/17 12:40:35;;;;;;;13.75;5.70;;;;;;;;;;5052260;28;20409;-64
2021/11/17 12:43:08;;;;;;;11.85;5.20;;;;;;;;;;5051927;28;20084;-65
2021/11/17 12:45:38;;;;;;;9.90;4.78;;;;;;;;;;5052477;28;20402;-64
2021/11/17 12:48:11;;;;;;;15.52;5.47;;;;;;;;;;5052325;28;20049;-65
2021/11/17 12:50:44;;;;;;;14.05;4.85;;;;;;;;;;5052071;28;20469;-65
2021/11/17 12:53:15;;;;;;;14.05;6.07;;;;;;;;;;5051903;28;20048;-65
2021/11/17 12:55:43;;;;;;;;;;;;;;;;;;5052322;28;20087;-65
2021/11/17 12:58:12;;;;;;;12.40;4.78;;;;;;;;;;5052582;28;19920;-64
2021/11/17 13:00:45;;;;;;;12.05;5.10;;;;;;;;;;5056162;28;20049;-64
2021/11/17 13:03:28;;;;;;;14.38;4.93;;;;;;;;;;5055935;28;20055;-64
2021/11/17 13:06:22;;;;;;;14.27;5.78;;;;;;;;;;5055961;28;20045;-64
2021/11/17 13:09:08;;;;;;;11.88;4.53;;;;;;;;;;5045962;28;20053;-64
2021/11/17 13:11:51;;;;;;;13.60;5.88;;;;;;;;;;5056344;28;20107;-64
2021/11/17 13:14:24;;;;;;;12.10;5.15;;;;;;;;;;5055776;28;20515;-63
2021/11/17 13:16:52;;;;;;;13.95;5.57;;;;;;;;;;5055997;28;20040;-64
2021/11/17 13:19:30;;;;;;;13.57;5.03;;;;;;;;;;5055631;28;20051;-63
2021/11/17 13:22:05;;;;;;;13.98;5.75;;;;;;;;;;5056012;28;20091;-64
2021/11/17 13:24:40;;;;;;;11.80;5.63;;;;;;;;;;5055779;28;20476;-62
2021/11/17 13:27:42;;;;;;;10.85;4.28;;;;;;;;;;5055675;28;20146;-63
2021/11/17 13:30:34;;;;;;;11.82;5.00;;;;;;;;;;5055753;28;20051;-63
2021/11/17 13:33:22;;;;;;;13.20;5.47;;;;;;;;;;5055777;28;20053;-63
2021/11/17 13:36:00;;;;;;;12.07;5.00;;;;;;;;;;5055737;28;20091;-63
2021/11/17 13:38:30;;;;;;;15.30;5.43;;;;;;;;;;5055532;28;20067;-63
2021/11/17 13:40:59;;;;;;;15.63;6.70;;;;;;;;;;5055271;28;20067;-62
2021/11/17 13:43:27;;;;;;;12.82;6.13;;;;;;;;;;5055400;28;20045;-64
2021/11/17 13:45:58;;;;;;;14.40;5.63;;;;;;;;;;5055314;28;20128;-64
2021/11/17 13:48:28;;;;;;;11.25;5.55;;;;;;;;;;5055188;28;20087;-62
2021/11/17 13:50:57;;;;;;;15.90;5.05;;;;;;;;;;5054781;28;20045;-63
2021/11/17 13:53:25;;;;;;;10.30;5.10;;;;;;;;;;5054748;28;20140;-65
2021/11/17 13:55:56;;;;;;;12.90;5.63;;;;;;;;;;5055224;28;20127;-65
2021/11/17 13:58:24;;;;;;;12.73;5.15;;;;;;;;;;5054855;28;20049;-63
2021/11/17 14:00:51;;;;;;;14.85;5.25;;;;;;;;;;5055074;28;20049;-63
2021/11/17 14:03:18;;;;;;;11.07;5.00;;;;;;;;;;5054707;28;20059;-64
2021/11/17 14:05:49;;;;;;;9.60;4.88;;;;;;;;;;5054734;28;20049;-64
2021/11/17 14:08:17;;;;;;;10.77;4.97;;;;;;;;;;5054990;28;20408;-62
2021/11/17 14:10:45;;;;;;;11.40;4.55;;;;;;;;;;5053807;28;20459;-64
2021/11/17 14:13:14;;;;;;;12.90;5.38;;;;;;;;;;5054655;28;20481;-64
2021/11/17 14:15:42;;;;;;;11.40;5.82;;;;;;;;;;5054682;28;20044;-64
2021/11/17 14:18:11;;;;;;;14.85;6.07;;;;;;;;;;5054677;28;20489;-64
2021/11/17 14:20:39;;;;;;;14.05;6.30;;;;;;;;;;5054443;28;20061;-63
2021/11/17 14:23:06;;;;;;;15.77;6.78;;;;;;;;;;5054603;28;20460;-64
2021/11/17 14:25:33;;;;;;;12.73;6.05;;;;;;;;;;5054747;28;20450;-65
2021/11/17 14:28:03;;;;;;;16.48;7.32;;;;;;;;;;5054450;28;20509;-64
2021/11/17 14:30:35;;;;;;;13.80;5.87;;;;;;;;;;5054786;28;20055;-64
2021/11/17 14:33:04;;;;;;;14.25;6.78;;;;;;;;;;5054330;28;20280;-65
2021/11/17 14:35:31;;;;;;;13.30;6.43;;;;;;;;;;5054054;28;20079;-64
2021/11/17 14:38:01;;;;;;;12.75;6.28;;;;;;;;;;5054637;28;20139;-65
2021/11/17 14:40:29;;;;;;;13.68;6.90;;;;;;;;;;5054096;28;20390;-64
2021/11/17 14:42:56;;;;;;;16.95;7.03;;;;;;;;;;5054037;28;20501;-64
2021/11/17 14:45:27;;;;;;;15.68;7.43;;;;;;;;;;5053912;28;20063;-64
2021/11/17 14:47:55;;;;;;;17.05;7.65;;;;;;;;;;5054046;28;20132;-64
2021/11/17 14:50:23;;;;;;;16.60;6.63;;;;;;;;;;5053870;28;20476;-63
2021/11/17 14:52:50;;;;;;;12.93;5.93;;;;;;;;;;5053563;28;20045;-64
2021/11/17 14:55:19;;;;;;;13.98;6.25;;;;;;;;;;5053727;28;20049;-66
2021/11/17 14:57:46;;;;;;;13.77;6.20;;;;;;;;;;5053786;28;20127;-64
2021/11/17 15:00:18;;;;;;;13.55;6.40;;;;;;;;;;5053639;28;20128;-62
2021/11/17 15:02:45;;;;;;;14.40;6.82;;;;;;;;;;5053765;28;20127;-64
2021/11/17 15:05:14;;;;;;;11.73;5.65;;;;;;;;;;5053817;28;20052;-64
2021/11/17 15:07:42;;;;;;;13.13;6.63;;;;;;;;;;5054028;28;20112;-64
2021/11/17 15:10:12;;;;;;;12.95;6.97;;;;;;;;;;5053374;28;20049;-62
2021/11/17 15:12:40;;;;;;;13.83;6.33;;;;;;;;;;5053775;28;20501;-64
2021/11/17 15:15:10;;;;;;;11.18;5.43;;;;;;;;;;5053671;28;20489;-62
2021/11/17 15:17:37;;;;;;;14.82;6.55;;;;;;;;;;5053926;28;20048;-65
2021/11/17 15:20:06;;;;;;;15.70;6.45;;;;;;;;;;5053738;28;20067;-63
2021/11/17 15:22:36;;;;;;;11.65;5.15;;;;;;;;;;5052207;28;20059;-62
2021/11/17 15:25:05;;;;;;;12.88;5.18;;;;;;;;;;5053377;28;20052;-63
2021/11/17 15:27:36;;;;;;;9.88;4.40;;;;;;;;;;5053511;28;20052;-63
2021/11/17 15:30:08;;;;;;;10.00;4.80;;;;;;;;;;5053417;28;20099;-64
2021/11/17 15:32:35;;;;;;;11.80;4.90;;;;;;;;;;5053304;28;20049;-63
2021/11/17 15:35:02;;;;;;;10.45;4.85;;;;;;;;;;5052991;28;20048;-64
2021/11/17 15:37:29;;;;;;;12.48;5.97;;;;;;;;;;5053282;28;20056;-63
2021/11/17 15:39:57;;;;;;;10.15;4.88;;;;;;;;;;5052974;28;20052;-64
2021/11/17 15:42:24;;;;;;;9.88;4.50;;;;;;;;;;5053143;28;20504;-64
2021/11/17 15:44:51;;;;;;;10.57;5.22;;;;;;;;;;5052576;28;20052;-63
2021/11/17 15:47:23;;;;;;;10.57;5.15;;;;;;;;;;5052809;28;20045;-64
2021/11/17 15:49:50;;;;;;;13.02;5.55;;;;;;;;;;5053086;28;20559;-64
2021/11/17 15:52:17;;;;;;;12.02;5.57;;;;;;;;;;5063063;22;20393;-62
2021/11/17 15:54:44;;;;;;;13.35;5.07;;;;;;;;;;5052247;28;20040;-62
2021/11/17 15:57:13;;;;;;;14.98;5.97;;;;;;;;;;5052300;28;20053;-61
2021/11/17 15:59:40;;;;;;;11.30;5.13;;;;;;;;;;5052403;28;20478;-62
2021/11/17 16:02:07;;;;;;;12.30;5.43;;;;;;;;;;5052194;28;20049;-61
2021/11/17 16:04:34;;;;;;;15.52;5.28;;;;;;;;;;5052152;28;20049;-62
2021/11/17 16:07:04;;;;;;;15.32;5.00;;;;;;;;;;5052411;28;20626;-63
2021/11/17 16:09:34;;;;;;;12.93;6.10;;;;;;;;;;5052739;28;20074;-63
2021/11/17 16:12:02;;;;;;;12.57;4.68;;;;;;;;;;5052414;28;20559;-62
2021/11/17 16:14:31;;;;;;;17.35;5.55;;;;;;;;;;5052285;28;20060;-62
2021/11/17 16:17:02;;;;;;;12.13;4.53;;;;;;;;;;5052259;28;20080;-62
2021/11/17 16:19:33;;;;;;;10.73;5.07;;;;;;;;;;5050005;28;20045;-63
2021/11/17 16:22:01;;;;;;;12.77;5.47;;;;;;;;;;5052447;28;20460;-63
2021/11/17 16:27:13;;;;;;;12.40;5.45;;;;;;;;;;5052159;28;20523;-63
2021/11/17 16:29:46;;;;;;;12.50;6.28;;;;;;;;;;5052056;28;20055;-63
2021/11/17 16:32:14;;;;;;;11.18;5.25;;;;;;;;;;5052339;28;20157;-63
2021/11/17 16:34:42;;;;;;;12.88;5.85;;;;;;;;;;5051324;28;20057;-61
2021/11/17 16:37:08;;;;;;;11.57;5.40;;;;;;;;;;5052062;28;20052;-62
2021/11/17 16:39:35;;;;;;;11.32;5.70;;;;;;;;;;5051965;28;20049;-63
2021/11/17 16:42:03;;;;;;;10.18;5.60;;;;;;;;;;5051782;28;20445;-62
2021/11/17 16:44:30;;;;;;;11.15;5.25;;;;;;;;;;5051710;28;20064;-60
2021/11/17 16:46:58;;;;;;;10.27;5.45;;;;;;;;;;5051977;28;20040;-60
2021/11/17 16:49:26;;;;;;;14.02;6.97;;;;;;;;;;5051806;28;20425;-62
2021/11/17 16:52:13;;;;;;;13.30;6.22;;;;;;;;;;5051527;28;20045;-63
2021/11/17 16:54:42;;;;;;;12.82;5.93;;;;;;;;;;5051651;28;20056;-63
2021/11/17 16:57:09;;;;;;;11.23;5.43;;;;;;;;;;5051831;28;20052;-62
2021/11/17 16:59:36;;;;;;;13.05;5.50;;;;;;;;;;5051709;28;20123;-63
2021/11/17 17:02:05;;;;;;;16.25;6.78;;;;;;;;;;5051623;28;20049;-62
2021/11/17 17:04:32;;;;;;;12.15;5.85;;;;;;;;;;5051328;28;20406;-60
2021/11/17 17:06:59;;;;;;;13.45;6.13;;;;;;;;;;5051407;28;20490;-62
2021/11/17 17:09:26;;;;;;;13.27;6.15;;;;;;;;;;5051527;28;20490;-63
2021/11/17 17:11:53;;;;;;;13.75;6.20;;;;;;;;;;5051380;28;20429;-63
2021/11/17 17:14:20;;;;;;;9.40;5.97;;;;;;;;;;5051407;28;20139;-62
2021/11/17 17:16:48;;;;;;;13.20;6.13;;;;;;;;;;5051250;28;20069;-61
2021/11/17 17:19:16;;;;;;;14.15;6.40;;;;;;;;;;5051382;28;20044;-62
2021/11/17 17:21:44;;;;;;;12.52;6.85;;;;;;;;;;5051459;28;20052;-61
2021/11/17 17:24:12;;;;;;;14.30;6.65;;;;;;;;;;5051281;28;20045;-62
2021/11/17 17:26:40;;;;;;;15.18;7.72;;;;;;;;;;5051206;28;20124;-61
2021/11/17 17:29:08;;;;;;;14.35;6.80;;;;;;;;;;5051350;28;20091;-63
2021/11/17 17:31:35;;;;;;;12.05;6.13;;;;;;;;;;5051232;28;20053;-62
2021/11/17 17:34:02;;;;;;;14.27;6.70;;;;;;;;;;5051350;28;20044;-61
2021/11/17 17:36:31;;;;;;;13.77;6.38;;;;;;;;;;5050935;28;20053;-62
2021/11/17 17:38:58;;;;;;;13.18;6.70;;;;;;;;;;5051295;28;20045;-62
2021/11/17 17:41:26;;;;;;;13.27;6.32;;;;;;;;;;5051277;28;20404;-62
2021/11/17 17:43:57;;;;;;;15.88;6.20;;;;;;;;;;5051168;28;20509;-63
2021/11/17 17:46:24;;;;;;;14.50;6.55;;;;;;;;;;5053768;28;20137;-62